sensor_id;sensor_type;location;lat;lon;timestamp;P1;durP1;ratioP1;P2;durP2;ratioP2
13309;SDS011;6723;48.256;16.402;2024-01-27T00:00:30;0.53;;;0.40;;
13309;SDS011;6723;48.256;16.402;2024-01-27T00:02:56;1.37;;;0.40;;
13309;SDS011;6723;48.256;16.402;2024-01-27T00:05:22;1.77;;;0.40;;
13309;SDS011;6723;48.256;16.402;2024-01-27T00:07:48;1.87;;;0.50;;
13309;SDS011;6723;48.256;16.402;2024-01-27T00:10:14;0.30;;;0.17;;
13309;SDS011;6723;48.256;16.402;2024-01-27T00:12:40;0.40;;;0.40;;
13309;SDS011;6723;48.256;16.402;2024-01-27T00:15:07;0.70;;;0.40;;
13309;SDS011;6723;48.256;16.402;2024-01-27T00:17:34;1.23;;;0.40;;
13309;SDS011;6723;48.256;16.402;2024-01-27T00:20:01;0.53;;;0.30;;
13309;SDS011;6723;48.256;16.402;2024-01-27T00:22:28;1.47;;;0.30;;
13309;SDS011;6723;48.256;16.402;2024-01-27T00:24:53;0.83;;;0.40;;
13309;SDS011;6723;48.256;16.402;2024-01-27T00:27:19;1.30;;;0.40;;
13309;SDS011;6723;48.256;16.402;2024-01-27T00:29:45;1.77;;;0.40;;
13309;SDS011;6723;48.256;16.402;2024-01-27T00:32:11;2.93;;;0.50;;
13309;SDS011;6723;48.256;16.402;2024-01-27T00:34:37;2.77;;;0.53;;
13309;SDS011;6723;48.256;16.402;2024-01-27T00:37:03;1.40;;;0.40;;
13309;SDS011;6723;48.256;16.402;2024-01-27T00:39:28;0.53;;;0.40;;
13309;SDS011;6723;48.256;16.402;2024-01-27T00:41:56;1.20;;;0.30;;
13309;SDS011;6723;48.256;16.402;2024-01-27T00:44:23;0.70;;;0.40;;
13309;SDS011;6723;48.256;16.402;2024-01-27T00:46:49;1.03;;;0.50;;
13309;SDS011;6723;48.256;16.402;2024-01-27T00:49:15;1.33;;;0.50;;
13309;SDS011;6723;48.256;16.402;2024-01-27T00:51:40;1.23;;;0.50;;
13309;SDS011;6723;48.256;16.402;2024-01-27T00:54:06;1.23;;;0.53;;
13309;SDS011;6723;48.256;16.402;2024-01-27T00:56:33;0.57;;;0.30;;
13309;SDS011;6723;48.256;16.402;2024-01-27T00:58:59;0.93;;;0.50;;
13309;SDS011;6723;48.256;16.402;2024-01-27T01:01:25;0.50;;;0.30;;
13309;SDS011;6723;48.256;16.402;2024-01-27T01:03:50;0.20;;;0.20;;
13309;SDS011;6723;48.256;16.402;2024-01-27T01:06:16;0.50;;;0.30;;
13309;SDS011;6723;48.256;16.402;2024-01-27T01:08:42;0.97;;;0.40;;
13309;SDS011;6723;48.256;16.402;2024-01-27T01:11:08;1.13;;;0.30;;
13309;SDS011;6723;48.256;16.402;2024-01-27T01:13:34;1.27;;;0.40;;
13309;SDS011;6723;48.256;16.402;2024-01-27T01:16:00;1.53;;;0.40;;
13309;SDS011;6723;48.256;16.402;2024-01-27T01:18:27;0.73;;;0.40;;
13309;SDS011;6723;48.256;16.402;2024-01-27T01:20:53;3.20;;;0.50;;
13309;SDS011;6723;48.256;16.402;2024-01-27T01:23:19;2.63;;;0.50;;
13309;SDS011;6723;48.256;16.402;2024-01-27T01:25:45;0.60;;;0.30;;
13309;SDS011;6723;48.256;16.402;2024-01-27T01:28:11;0.67;;;0.37;;
13309;SDS011;6723;48.256;16.402;2024-01-27T01:30:37;1.30;;;0.40;;
13309;SDS011;6723;48.256;16.402;2024-01-27T01:33:02;0.63;;;0.30;;
13309;SDS011;6723;48.256;16.402;2024-01-27T01:35:28;0.97;;;0.57;;
13309;SDS011;6723;48.256;16.402;2024-01-27T01:37:54;0.67;;;0.40;;
13309;SDS011;6723;48.256;16.402;2024-01-27T01:40:20;1.03;;;0.60;;
13309;SDS011;6723;48.256;16.402;2024-01-27T01:42:50;1.70;;;0.60;;
13309;SDS011;6723;48.256;16.402;2024-01-27T01:45:17;1.20;;;0.40;;
13309;SDS011;6723;48.256;16.402;2024-01-27T01:47:43;1.17;;;0.40;;
13309;SDS011;6723;48.256;16.402;2024-01-27T01:50:09;2.50;;;0.50;;
13309;SDS011;6723;48.256;16.402;2024-01-27T01:52:36;1.00;;;0.63;;
13309;SDS011;6723;48.256;16.402;2024-01-27T01:55:04;0.87;;;0.50;;
13309;SDS011;6723;48.256;16.402;2024-01-27T01:57:30;1.63;;;0.50;;
13309;SDS011;6723;48.256;16.402;2024-01-27T01:59:58;0.80;;;0.30;;
13309;SDS011;6723;48.256;16.402;2024-01-27T02:02:24;1.43;;;0.50;;
13309;SDS011;6723;48.256;16.402;2024-01-27T02:04:50;0.83;;;0.50;;
13309;SDS011;6723;48.256;16.402;2024-01-27T02:07:16;0.93;;;0.50;;
13309;SDS011;6723;48.256;16.402;2024-01-27T02:09:42;0.37;;;0.33;;
13309;SDS011;6723;48.256;16.402;2024-01-27T02:12:10;1.23;;;0.40;;
13309;SDS011;6723;48.256;16.402;2024-01-27T02:14:36;0.60;;;0.50;;
13309;SDS011;6723;48.256;16.402;2024-01-27T02:17:02;1.20;;;0.50;;
13309;SDS011;6723;48.256;16.402;2024-01-27T02:19:29;0.63;;;0.57;;
13309;SDS011;6723;48.256;16.402;2024-01-27T02:21:55;1.03;;;0.70;;
13309;SDS011;6723;48.256;16.402;2024-01-27T02:24:21;0.70;;;0.60;;
13309;SDS011;6723;48.256;16.402;2024-01-27T02:26:47;3.33;;;0.80;;
13309;SDS011;6723;48.256;16.402;2024-01-27T02:29:12;1.17;;;0.50;;
13309;SDS011;6723;48.256;16.402;2024-01-27T02:31:38;1.17;;;0.67;;
13309;SDS011;6723;48.256;16.402;2024-01-27T02:34:04;2.10;;;0.60;;
13309;SDS011;6723;48.256;16.402;2024-01-27T02:36:30;1.13;;;0.80;;
13309;SDS011;6723;48.256;16.402;2024-01-27T02:38:56;2.03;;;0.80;;
13309;SDS011;6723;48.256;16.402;2024-01-27T02:41:21;1.40;;;0.67;;
13309;SDS011;6723;48.256;16.402;2024-01-27T02:43:48;2.10;;;0.80;;
13309;SDS011;6723;48.256;16.402;2024-01-27T02:46:13;0.93;;;0.70;;
13309;SDS011;6723;48.256;16.402;2024-01-27T02:48:43;1.60;;;1.00;;
13309;SDS011;6723;48.256;16.402;2024-01-27T02:51:10;1.67;;;0.50;;
13309;SDS011;6723;48.256;16.402;2024-01-27T02:53:36;1.80;;;0.70;;
13309;SDS011;6723;48.256;16.402;2024-01-27T02:56:02;0.87;;;0.60;;
13309;SDS011;6723;48.256;16.402;2024-01-27T02:58:31;2.57;;;0.70;;
13309;SDS011;6723;48.256;16.402;2024-01-27T03:00:57;0.90;;;0.67;;
13309;SDS011;6723;48.256;16.402;2024-01-27T03:03:22;0.73;;;0.50;;
13309;SDS011;6723;48.256;16.402;2024-01-27T03:05:48;0.87;;;0.50;;
13309;SDS011;6723;48.256;16.402;2024-01-27T03:08:14;3.47;;;0.90;;
13309;SDS011;6723;48.256;16.402;2024-01-27T03:10:40;3.53;;;0.87;;
13309;SDS011;6723;48.256;16.402;2024-01-27T03:13:06;2.40;;;1.00;;
13309;SDS011;6723;48.256;16.402;2024-01-27T03:15:31;0.90;;;0.60;;
13309;SDS011;6723;48.256;16.402;2024-01-27T03:17:57;2.20;;;0.80;;
13309;SDS011;6723;48.256;16.402;2024-01-27T03:20:23;3.90;;;1.10;;
13309;SDS011;6723;48.256;16.402;2024-01-27T03:22:49;2.27;;;0.90;;
13309;SDS011;6723;48.256;16.402;2024-01-27T03:25:15;1.23;;;0.83;;
13309;SDS011;6723;48.256;16.402;2024-01-27T03:27:41;2.87;;;1.00;;
13309;SDS011;6723;48.256;16.402;2024-01-27T03:30:07;1.80;;;0.93;;
13309;SDS011;6723;48.256;16.402;2024-01-27T03:32:34;2.27;;;0.90;;
13309;SDS011;6723;48.256;16.402;2024-01-27T03:35:00;2.33;;;0.80;;
13309;SDS011;6723;48.256;16.402;2024-01-27T03:37:26;2.00;;;0.80;;
13309;SDS011;6723;48.256;16.402;2024-01-27T03:39:52;1.20;;;0.63;;
13309;SDS011;6723;48.256;16.402;2024-01-27T03:42:19;1.03;;;0.80;;
13309;SDS011;6723;48.256;16.402;2024-01-27T03:44:44;1.60;;;0.93;;
13309;SDS011;6723;48.256;16.402;2024-01-27T03:47:10;1.60;;;0.90;;
13309;SDS011;6723;48.256;16.402;2024-01-27T03:49:36;1.30;;;1.00;;
13309;SDS011;6723;48.256;16.402;2024-01-27T03:52:02;1.10;;;1.00;;
13309;SDS011;6723;48.256;16.402;2024-01-27T03:54:28;1.60;;;0.90;;
13309;SDS011;6723;48.256;16.402;2024-01-27T03:56:54;1.63;;;0.97;;
13309;SDS011;6723;48.256;16.402;2024-01-27T03:59:20;1.67;;;0.90;;
13309;SDS011;6723;48.256;16.402;2024-01-27T04:01:47;0.60;;;0.50;;
13309;SDS011;6723;48.256;16.402;2024-01-27T04:04:12;1.57;;;0.90;;
13309;SDS011;6723;48.256;16.402;2024-01-27T04:06:39;1.33;;;0.73;;
13309;SDS011;6723;48.256;16.402;2024-01-27T04:09:05;2.73;;;0.80;;
13309;SDS011;6723;48.256;16.402;2024-01-27T04:11:34;1.73;;;0.87;;
13309;SDS011;6723;48.256;16.402;2024-01-27T04:14:02;1.30;;;0.80;;
13309;SDS011;6723;48.256;16.402;2024-01-27T04:16:28;0.70;;;0.60;;
13309;SDS011;6723;48.256;16.402;2024-01-27T04:18:54;2.07;;;1.00;;
13309;SDS011;6723;48.256;16.402;2024-01-27T04:21:20;1.13;;;0.90;;
13309;SDS011;6723;48.256;16.402;2024-01-27T04:23:46;1.83;;;0.80;;
13309;SDS011;6723;48.256;16.402;2024-01-27T04:26:12;1.10;;;0.80;;
13309;SDS011;6723;48.256;16.402;2024-01-27T04:28:38;2.17;;;1.10;;
13309;SDS011;6723;48.256;16.402;2024-01-27T04:31:04;2.30;;;0.90;;
13309;SDS011;6723;48.256;16.402;2024-01-27T04:33:30;1.10;;;0.80;;
13309;SDS011;6723;48.256;16.402;2024-01-27T04:35:56;1.87;;;0.97;;
13309;SDS011;6723;48.256;16.402;2024-01-27T04:38:22;1.43;;;1.00;;
13309;SDS011;6723;48.256;16.402;2024-01-27T04:40:49;1.70;;;1.10;;
13309;SDS011;6723;48.256;16.402;2024-01-27T04:43:16;1.60;;;0.77;;
13309;SDS011;6723;48.256;16.402;2024-01-27T04:45:43;2.33;;;1.00;;
13309;SDS011;6723;48.256;16.402;2024-01-27T04:48:09;1.83;;;1.10;;
13309;SDS011;6723;48.256;16.402;2024-01-27T04:50:35;3.73;;;1.20;;
13309;SDS011;6723;48.256;16.402;2024-01-27T04:53:01;1.20;;;1.10;;
13309;SDS011;6723;48.256;16.402;2024-01-27T04:55:27;2.27;;;1.40;;
13309;SDS011;6723;48.256;16.402;2024-01-27T04:57:53;2.07;;;1.40;;
13309;SDS011;6723;48.256;16.402;2024-01-27T05:00:19;1.63;;;1.10;;
13309;SDS011;6723;48.256;16.402;2024-01-27T05:02:45;3.17;;;1.23;;
13309;SDS011;6723;48.256;16.402;2024-01-27T05:05:11;3.40;;;1.20;;
13309;SDS011;6723;48.256;16.402;2024-01-27T05:07:38;2.97;;;1.40;;
13309;SDS011;6723;48.256;16.402;2024-01-27T05:10:04;1.87;;;1.10;;
13309;SDS011;6723;48.256;16.402;2024-01-27T05:12:31;1.23;;;0.73;;
13309;SDS011;6723;48.256;16.402;2024-01-27T05:14:57;2.63;;;1.30;;
13309;SDS011;6723;48.256;16.402;2024-01-27T05:17:23;2.20;;;1.10;;
13309;SDS011;6723;48.256;16.402;2024-01-27T05:19:51;3.03;;;1.20;;
13309;SDS011;6723;48.256;16.402;2024-01-27T05:22:17;2.07;;;1.17;;
13309;SDS011;6723;48.256;16.402;2024-01-27T05:24:43;1.63;;;1.10;;
13309;SDS011;6723;48.256;16.402;2024-01-27T05:27:09;2.00;;;1.20;;
13309;SDS011;6723;48.256;16.402;2024-01-27T05:29:36;1.67;;;1.10;;
13309;SDS011;6723;48.256;16.402;2024-01-27T05:32:03;3.50;;;1.47;;
13309;SDS011;6723;48.256;16.402;2024-01-27T05:34:29;2.33;;;1.47;;
13309;SDS011;6723;48.256;16.402;2024-01-27T05:36:57;1.77;;;1.27;;
13309;SDS011;6723;48.256;16.402;2024-01-27T05:39:23;4.63;;;1.40;;
13309;SDS011;6723;48.256;16.402;2024-01-27T05:41:49;4.60;;;1.40;;
13309;SDS011;6723;48.256;16.402;2024-01-27T05:44:15;2.37;;;1.27;;
13309;SDS011;6723;48.256;16.402;2024-01-27T05:46:40;2.03;;;1.27;;
13309;SDS011;6723;48.256;16.402;2024-01-27T05:49:06;4.67;;;1.83;;
13309;SDS011;6723;48.256;16.402;2024-01-27T05:51:32;3.13;;;1.60;;
13309;SDS011;6723;48.256;16.402;2024-01-27T05:53:59;3.70;;;1.70;;
13309;SDS011;6723;48.256;16.402;2024-01-27T05:56:25;4.13;;;1.60;;
13309;SDS011;6723;48.256;16.402;2024-01-27T05:58:51;2.80;;;1.50;;
13309;SDS011;6723;48.256;16.402;2024-01-27T06:01:20;3.40;;;1.87;;
13309;SDS011;6723;48.256;16.402;2024-01-27T06:03:46;2.33;;;1.50;;
13309;SDS011;6723;48.256;16.402;2024-01-27T06:06:15;6.03;;;2.00;;
13309;SDS011;6723;48.256;16.402;2024-01-27T06:08:41;3.13;;;1.57;;
13309;SDS011;6723;48.256;16.402;2024-01-27T06:11:07;6.17;;;2.00;;
13309;SDS011;6723;48.256;16.402;2024-01-27T06:13:35;3.50;;;1.70;;
13309;SDS011;6723;48.256;16.402;2024-01-27T06:16:07;3.93;;;2.00;;
13309;SDS011;6723;48.256;16.402;2024-01-27T06:18:34;2.47;;;2.10;;
13309;SDS011;6723;48.256;16.402;2024-01-27T06:21:01;2.80;;;1.90;;
13309;SDS011;6723;48.256;16.402;2024-01-27T06:23:28;5.00;;;1.90;;
13309;SDS011;6723;48.256;16.402;2024-01-27T06:25:54;3.50;;;1.80;;
13309;SDS011;6723;48.256;16.402;2024-01-27T06:28:20;4.20;;;2.00;;
13309;SDS011;6723;48.256;16.402;2024-01-27T06:30:45;3.20;;;2.00;;
13309;SDS011;6723;48.256;16.402;2024-01-27T06:33:11;3.80;;;2.03;;
13309;SDS011;6723;48.256;16.402;2024-01-27T06:35:37;3.50;;;2.17;;
13309;SDS011;6723;48.256;16.402;2024-01-27T06:38:03;4.93;;;2.10;;
13309;SDS011;6723;48.256;16.402;2024-01-27T06:40:29;6.00;;;1.90;;
13309;SDS011;6723;48.256;16.402;2024-01-27T06:42:55;6.30;;;2.37;;
13309;SDS011;6723;48.256;16.402;2024-01-27T06:45:21;9.17;;;2.40;;
13309;SDS011;6723;48.256;16.402;2024-01-27T06:47:46;3.67;;;2.10;;
13309;SDS011;6723;48.256;16.402;2024-01-27T06:50:12;3.47;;;1.77;;
13309;SDS011;6723;48.256;16.402;2024-01-27T06:52:39;3.40;;;1.80;;
13309;SDS011;6723;48.256;16.402;2024-01-27T06:55:06;4.37;;;1.87;;
13309;SDS011;6723;48.256;16.402;2024-01-27T06:57:32;2.60;;;1.37;;
13309;SDS011;6723;48.256;16.402;2024-01-27T06:59:58;2.23;;;1.93;;
13309;SDS011;6723;48.256;16.402;2024-01-27T07:02:24;4.43;;;1.77;;
13309;SDS011;6723;48.256;16.402;2024-01-27T07:04:51;2.53;;;1.23;;
13309;SDS011;6723;48.256;16.402;2024-01-27T07:07:18;2.67;;;1.70;;
13309;SDS011;6723;48.256;16.402;2024-01-27T07:09:47;4.60;;;1.80;;
13309;SDS011;6723;48.256;16.402;2024-01-27T07:12:12;4.53;;;1.87;;
13309;SDS011;6723;48.256;16.402;2024-01-27T07:14:38;3.80;;;1.97;;
13309;SDS011;6723;48.256;16.402;2024-01-27T07:17:04;4.47;;;1.87;;
13309;SDS011;6723;48.256;16.402;2024-01-27T07:19:30;2.23;;;1.80;;
13309;SDS011;6723;48.256;16.402;2024-01-27T07:21:57;4.67;;;1.73;;
13309;SDS011;6723;48.256;16.402;2024-01-27T07:24:25;4.30;;;1.80;;
13309;SDS011;6723;48.256;16.402;2024-01-27T07:26:51;2.57;;;1.77;;
13309;SDS011;6723;48.256;16.402;2024-01-27T07:29:17;4.33;;;2.10;;
13309;SDS011;6723;48.256;16.402;2024-01-27T07:31:43;3.37;;;1.57;;
13309;SDS011;6723;48.256;16.402;2024-01-27T07:34:09;4.43;;;1.97;;
13309;SDS011;6723;48.256;16.402;2024-01-27T07:36:35;4.73;;;1.83;;
13309;SDS011;6723;48.256;16.402;2024-01-27T07:39:01;3.33;;;1.97;;
13309;SDS011;6723;48.256;16.402;2024-01-27T07:41:30;3.10;;;1.90;;
13309;SDS011;6723;48.256;16.402;2024-01-27T07:43:56;5.33;;;1.90;;
13309;SDS011;6723;48.256;16.402;2024-01-27T07:46:22;4.13;;;2.03;;
13309;SDS011;6723;48.256;16.402;2024-01-27T07:48:48;3.67;;;2.47;;
13309;SDS011;6723;48.256;16.402;2024-01-27T07:51:15;2.87;;;1.83;;
13309;SDS011;6723;48.256;16.402;2024-01-27T07:53:41;3.53;;;1.50;;
13309;SDS011;6723;48.256;16.402;2024-01-27T07:56:07;2.40;;;1.50;;
13309;SDS011;6723;48.256;16.402;2024-01-27T07:58:33;3.40;;;1.20;;
13309;SDS011;6723;48.256;16.402;2024-01-27T08:00:59;1.60;;;1.20;;
13309;SDS011;6723;48.256;16.402;2024-01-27T08:03:25;2.50;;;1.47;;
13309;SDS011;6723;48.256;16.402;2024-01-27T08:05:54;3.40;;;1.30;;
13309;SDS011;6723;48.256;16.402;2024-01-27T08:08:21;4.03;;;1.47;;
13309;SDS011;6723;48.256;16.402;2024-01-27T08:10:47;1.90;;;1.40;;
13309;SDS011;6723;48.256;16.402;2024-01-27T08:13:12;1.70;;;1.20;;
13309;SDS011;6723;48.256;16.402;2024-01-27T08:15:38;2.83;;;1.40;;
13309;SDS011;6723;48.256;16.402;2024-01-27T08:18:04;2.27;;;1.40;;
13309;SDS011;6723;48.256;16.402;2024-01-27T08:20:30;2.67;;;1.30;;
13309;SDS011;6723;48.256;16.402;2024-01-27T08:22:56;3.13;;;1.60;;
13309;SDS011;6723;48.256;16.402;2024-01-27T08:25:21;3.17;;;1.50;;
13309;SDS011;6723;48.256;16.402;2024-01-27T08:27:47;3.30;;;1.40;;
13309;SDS011;6723;48.256;16.402;2024-01-27T08:30:13;3.67;;;1.50;;
13309;SDS011;6723;48.256;16.402;2024-01-27T08:32:40;6.00;;;1.40;;
13309;SDS011;6723;48.256;16.402;2024-01-27T08:35:05;3.50;;;1.80;;
13309;SDS011;6723;48.256;16.402;2024-01-27T08:37:32;3.90;;;1.40;;
13309;SDS011;6723;48.256;16.402;2024-01-27T08:40:03;4.27;;;1.90;;
13309;SDS011;6723;48.256;16.402;2024-01-27T08:42:31;2.50;;;1.50;;
13309;SDS011;6723;48.256;16.402;2024-01-27T08:44:56;4.00;;;1.80;;
13309;SDS011;6723;48.256;16.402;2024-01-27T08:47:22;3.93;;;1.60;;
13309;SDS011;6723;48.256;16.402;2024-01-27T08:49:48;3.80;;;2.00;;
13309;SDS011;6723;48.256;16.402;2024-01-27T08:52:14;1.60;;;1.20;;
13309;SDS011;6723;48.256;16.402;2024-01-27T08:54:40;4.30;;;1.60;;
13309;SDS011;6723;48.256;16.402;2024-01-27T08:57:06;4.63;;;2.10;;
13309;SDS011;6723;48.256;16.402;2024-01-27T08:59:32;3.00;;;1.73;;
13309;SDS011;6723;48.256;16.402;2024-01-27T09:01:58;4.77;;;1.73;;
13309;SDS011;6723;48.256;16.402;2024-01-27T09:04:23;6.00;;;2.30;;
13309;SDS011;6723;48.256;16.402;2024-01-27T09:06:49;3.83;;;2.10;;
13309;SDS011;6723;48.256;16.402;2024-01-27T09:09:15;7.40;;;2.33;;
13309;SDS011;6723;48.256;16.402;2024-01-27T09:11:41;4.80;;;2.10;;
13309;SDS011;6723;48.256;16.402;2024-01-27T09:14:07;3.90;;;1.97;;
13309;SDS011;6723;48.256;16.402;2024-01-27T09:16:35;5.67;;;2.00;;
13309;SDS011;6723;48.256;16.402;2024-01-27T09:19:01;4.57;;;2.13;;
13309;SDS011;6723;48.256;16.402;2024-01-27T09:21:27;5.50;;;2.30;;
13309;SDS011;6723;48.256;16.402;2024-01-27T09:23:54;3.53;;;2.17;;
13309;SDS011;6723;48.256;16.402;2024-01-27T09:26:20;5.67;;;2.47;;
13309;SDS011;6723;48.256;16.402;2024-01-27T09:28:48;6.30;;;2.40;;
13309;SDS011;6723;48.256;16.402;2024-01-27T09:31:22;7.30;;;2.60;;
13309;SDS011;6723;48.256;16.402;2024-01-27T09:33:50;5.80;;;2.70;;
13309;SDS011;6723;48.256;16.402;2024-01-27T09:36:19;4.87;;;2.60;;
13309;SDS011;6723;48.256;16.402;2024-01-27T09:38:48;4.50;;;2.47;;
13309;SDS011;6723;48.256;16.402;2024-01-27T09:41:14;6.70;;;2.73;;
13309;SDS011;6723;48.256;16.402;2024-01-27T09:43:44;5.53;;;2.60;;
13309;SDS011;6723;48.256;16.402;2024-01-27T09:46:11;4.93;;;2.53;;
13309;SDS011;6723;48.256;16.402;2024-01-27T09:48:38;5.20;;;2.60;;
13309;SDS011;6723;48.256;16.402;2024-01-27T09:51:05;5.60;;;2.60;;
13309;SDS011;6723;48.256;16.402;2024-01-27T09:53:32;4.50;;;2.73;;
13309;SDS011;6723;48.256;16.402;2024-01-27T09:55:58;4.73;;;2.57;;
13309;SDS011;6723;48.256;16.402;2024-01-27T09:58:27;4.53;;;2.40;;
13309;SDS011;6723;48.256;16.402;2024-01-27T10:00:58;4.70;;;2.80;;
13309;SDS011;6723;48.256;16.402;2024-01-27T10:03:25;4.93;;;2.67;;
13309;SDS011;6723;48.256;16.402;2024-01-27T10:05:53;6.17;;;2.57;;
13309;SDS011;6723;48.256;16.402;2024-01-27T10:08:20;4.93;;;2.30;;
13309;SDS011;6723;48.256;16.402;2024-01-27T10:10:49;4.33;;;2.53;;
13309;SDS011;6723;48.256;16.402;2024-01-27T10:13:19;4.13;;;2.30;;
13309;SDS011;6723;48.256;16.402;2024-01-27T10:16:07;4.03;;;2.13;;
13309;SDS011;6723;48.256;16.402;2024-01-27T10:18:37;4.23;;;2.37;;
13309;SDS011;6723;48.256;16.402;2024-01-27T10:21:16;6.53;;;2.77;;
13309;SDS011;6723;48.256;16.402;2024-01-27T10:23:43;5.03;;;2.10;;
13309;SDS011;6723;48.256;16.402;2024-01-27T10:26:09;4.47;;;2.20;;
13309;SDS011;6723;48.256;16.402;2024-01-27T10:28:36;5.53;;;2.30;;
13309;SDS011;6723;48.256;16.402;2024-01-27T10:31:11;6.73;;;2.43;;
13309;SDS011;6723;48.256;16.402;2024-01-27T10:33:38;5.90;;;2.40;;
13309;SDS011;6723;48.256;16.402;2024-01-27T10:36:05;3.97;;;2.20;;
13309;SDS011;6723;48.256;16.402;2024-01-27T10:38:38;4.03;;;2.30;;
13309;SDS011;6723;48.256;16.402;2024-01-27T10:41:07;4.10;;;2.13;;
13309;SDS011;6723;48.256;16.402;2024-01-27T10:43:37;4.67;;;2.53;;
13309;SDS011;6723;48.256;16.402;2024-01-27T10:46:08;6.00;;;2.90;;
13309;SDS011;6723;48.256;16.402;2024-01-27T10:48:34;5.43;;;2.87;;
13309;SDS011;6723;48.256;16.402;2024-01-27T10:51:08;3.90;;;2.90;;
13309;SDS011;6723;48.256;16.402;2024-01-27T10:53:35;4.10;;;2.53;;
13309;SDS011;6723;48.256;16.402;2024-01-27T10:56:03;6.00;;;2.50;;
13309;SDS011;6723;48.256;16.402;2024-01-27T10:58:36;4.23;;;2.10;;
13309;SDS011;6723;48.256;16.402;2024-01-27T11:01:07;4.57;;;2.00;;
13309;SDS011;6723;48.256;16.402;2024-01-27T11:03:38;3.60;;;1.40;;
13309;SDS011;6723;48.256;16.402;2024-01-27T11:06:06;5.23;;;2.10;;
13309;SDS011;6723;48.256;16.402;2024-01-27T11:08:33;3.77;;;1.73;;
13309;SDS011;6723;48.256;16.402;2024-01-27T11:10:59;5.93;;;1.73;;
13309;SDS011;6723;48.256;16.402;2024-01-27T11:13:27;3.63;;;1.40;;
13309;SDS011;6723;48.256;16.402;2024-01-27T11:15:55;4.23;;;1.37;;
13309;SDS011;6723;48.256;16.402;2024-01-27T11:18:24;5.73;;;1.80;;
13309;SDS011;6723;48.256;16.402;2024-01-27T11:20:53;4.70;;;1.90;;
13309;SDS011;6723;48.256;16.402;2024-01-27T11:23:20;4.53;;;2.33;;
13309;SDS011;6723;48.256;16.402;2024-01-27T11:26:02;6.00;;;1.63;;
13309;SDS011;6723;48.256;16.402;2024-01-27T11:28:31;6.30;;;2.03;;
13309;SDS011;6723;48.256;16.402;2024-01-27T11:30:57;4.83;;;1.87;;
13309;SDS011;6723;48.256;16.402;2024-01-27T11:33:28;5.70;;;1.83;;
13309;SDS011;6723;48.256;16.402;2024-01-27T11:36:02;3.27;;;1.80;;
13309;SDS011;6723;48.256;16.402;2024-01-27T11:38:30;4.27;;;1.70;;
13309;SDS011;6723;48.256;16.402;2024-01-27T11:40:57;4.70;;;1.63;;
13309;SDS011;6723;48.256;16.402;2024-01-27T11:43:24;4.63;;;1.70;;
13309;SDS011;6723;48.256;16.402;2024-01-27T11:48:23;3.30;;;1.50;;
13309;SDS011;6723;48.256;16.402;2024-01-27T11:51:01;6.23;;;1.80;;
13309;SDS011;6723;48.256;16.402;2024-01-27T11:53:33;3.07;;;1.60;;
13309;SDS011;6723;48.256;16.402;2024-01-27T11:55:59;6.10;;;2.20;;
13309;SDS011;6723;48.256;16.402;2024-01-27T11:58:27;3.53;;;1.70;;
13309;SDS011;6723;48.256;16.402;2024-01-27T12:00:53;4.80;;;1.90;;
13309;SDS011;6723;48.256;16.402;2024-01-27T12:03:19;3.77;;;1.57;;
13309;SDS011;6723;48.256;16.402;2024-01-27T12:05:45;5.37;;;1.73;;
13309;SDS011;6723;48.256;16.402;2024-01-27T12:08:10;8.20;;;2.60;;
13309;SDS011;6723;48.256;16.402;2024-01-27T12:10:36;6.53;;;2.40;;
13309;SDS011;6723;48.256;16.402;2024-01-27T12:13:03;4.13;;;1.43;;
13309;SDS011;6723;48.256;16.402;2024-01-27T12:15:29;3.23;;;1.33;;
13309;SDS011;6723;48.256;16.402;2024-01-27T12:17:55;5.07;;;1.60;;
13309;SDS011;6723;48.256;16.402;2024-01-27T12:20:22;3.63;;;1.70;;
13309;SDS011;6723;48.256;16.402;2024-01-27T12:22:48;6.00;;;1.80;;
13309;SDS011;6723;48.256;16.402;2024-01-27T12:25:16;2.80;;;1.53;;
13309;SDS011;6723;48.256;16.402;2024-01-27T12:27:43;3.03;;;1.37;;
13309;SDS011;6723;48.256;16.402;2024-01-27T12:30:09;4.93;;;1.50;;
13309;SDS011;6723;48.256;16.402;2024-01-27T12:32:36;5.87;;;1.70;;
13309;SDS011;6723;48.256;16.402;2024-01-27T12:35:05;2.17;;;1.30;;
13309;SDS011;6723;48.256;16.402;2024-01-27T12:37:32;5.60;;;1.60;;
13309;SDS011;6723;48.256;16.402;2024-01-27T12:39:59;3.80;;;1.57;;
13309;SDS011;6723;48.256;16.402;2024-01-27T12:42:25;4.77;;;2.00;;
13309;SDS011;6723;48.256;16.402;2024-01-27T12:44:50;4.87;;;2.40;;
13309;SDS011;6723;48.256;16.402;2024-01-27T12:47:16;4.20;;;2.10;;
13309;SDS011;6723;48.256;16.402;2024-01-27T12:49:45;3.57;;;2.33;;
13309;SDS011;6723;48.256;16.402;2024-01-27T12:52:14;5.57;;;2.03;;
13309;SDS011;6723;48.256;16.402;2024-01-27T12:54:40;4.10;;;2.40;;
13309;SDS011;6723;48.256;16.402;2024-01-27T12:57:06;5.63;;;2.20;;
13309;SDS011;6723;48.256;16.402;2024-01-27T12:59:33;4.80;;;1.83;;
13309;SDS011;6723;48.256;16.402;2024-01-27T13:01:59;4.33;;;1.73;;
13309;SDS011;6723;48.256;16.402;2024-01-27T13:04:25;3.23;;;2.07;;
13309;SDS011;6723;48.256;16.402;2024-01-27T13:06:51;6.90;;;2.20;;
13309;SDS011;6723;48.256;16.402;2024-01-27T13:09:19;3.20;;;1.93;;
13309;SDS011;6723;48.256;16.402;2024-01-27T13:11:45;6.70;;;3.10;;
13309;SDS011;6723;48.256;16.402;2024-01-27T13:14:11;3.80;;;2.10;;
13309;SDS011;6723;48.256;16.402;2024-01-27T13:16:38;6.17;;;2.83;;
13309;SDS011;6723;48.256;16.402;2024-01-27T13:19:03;4.17;;;2.93;;
13309;SDS011;6723;48.256;16.402;2024-01-27T13:21:29;4.57;;;2.47;;
13309;SDS011;6723;48.256;16.402;2024-01-27T13:23:55;5.03;;;2.40;;
13309;SDS011;6723;48.256;16.402;2024-01-27T13:26:21;4.57;;;2.13;;
13309;SDS011;6723;48.256;16.402;2024-01-27T13:28:47;4.70;;;2.30;;
13309;SDS011;6723;48.256;16.402;2024-01-27T13:31:15;6.37;;;2.40;;
13309;SDS011;6723;48.256;16.402;2024-01-27T13:33:42;4.03;;;1.90;;
13309;SDS011;6723;48.256;16.402;2024-01-27T13:36:08;4.97;;;2.10;;
13309;SDS011;6723;48.256;16.402;2024-01-27T13:38:34;6.10;;;2.63;;
13309;SDS011;6723;48.256;16.402;2024-01-27T13:41:01;3.80;;;1.90;;
13309;SDS011;6723;48.256;16.402;2024-01-27T13:43:27;6.00;;;2.43;;
13309;SDS011;6723;48.256;16.402;2024-01-27T13:45:52;6.03;;;2.37;;
13309;SDS011;6723;48.256;16.402;2024-01-27T13:48:20;4.20;;;2.10;;
13309;SDS011;6723;48.256;16.402;2024-01-27T13:50:47;6.30;;;2.20;;
13309;SDS011;6723;48.256;16.402;2024-01-27T13:53:12;3.93;;;1.97;;
13309;SDS011;6723;48.256;16.402;2024-01-27T13:55:39;7.47;;;2.27;;
13309;SDS011;6723;48.256;16.402;2024-01-27T13:58:05;5.40;;;1.93;;
13309;SDS011;6723;48.256;16.402;2024-01-27T14:00:32;4.93;;;2.07;;
13309;SDS011;6723;48.256;16.402;2024-01-27T14:02:59;5.70;;;1.80;;
13309;SDS011;6723;48.256;16.402;2024-01-27T14:05:25;3.43;;;1.90;;
13309;SDS011;6723;48.256;16.402;2024-01-27T14:07:51;3.97;;;1.90;;
13309;SDS011;6723;48.256;16.402;2024-01-27T14:10:17;3.87;;;1.90;;
13309;SDS011;6723;48.256;16.402;2024-01-27T14:12:43;5.17;;;2.10;;
13309;SDS011;6723;48.256;16.402;2024-01-27T14:15:09;4.50;;;2.20;;
13309;SDS011;6723;48.256;16.402;2024-01-27T14:17:35;6.83;;;2.27;;
13309;SDS011;6723;48.256;16.402;2024-01-27T14:20:02;4.23;;;1.83;;
13309;SDS011;6723;48.256;16.402;2024-01-27T14:22:28;3.43;;;2.00;;
13309;SDS011;6723;48.256;16.402;2024-01-27T14:24:55;4.43;;;2.00;;
13309;SDS011;6723;48.256;16.402;2024-01-27T14:27:21;5.53;;;2.37;;
13309;SDS011;6723;48.256;16.402;2024-01-27T14:29:53;6.37;;;2.07;;
13309;SDS011;6723;48.256;16.402;2024-01-27T14:32:20;4.20;;;2.43;;
13309;SDS011;6723;48.256;16.402;2024-01-27T14:34:46;5.67;;;2.37;;
13309;SDS011;6723;48.256;16.402;2024-01-27T14:37:12;5.23;;;2.50;;
13309;SDS011;6723;48.256;16.402;2024-01-27T14:39:39;4.57;;;2.17;;
13309;SDS011;6723;48.256;16.402;2024-01-27T14:42:10;7.17;;;2.07;;
13309;SDS011;6723;48.256;16.402;2024-01-27T14:44:35;7.00;;;2.20;;
13309;SDS011;6723;48.256;16.402;2024-01-27T14:47:01;4.70;;;2.10;;